createdAt,value
2023-05-11T00:00:46.403Z,93.09
2023-05-11T00:01:46.489Z,92.83
2023-05-11T00:02:46.469Z,93.19
2023-05-11T00:03:46.471Z,93.19
2023-05-11T00:04:46.391Z,93.50
2023-05-11T00:05:46.379Z,92.89
2023-05-11T00:06:46.371Z,93.29
2023-05-11T00:07:46.425Z,92.99
2023-05-11T00:08:46.331Z,93.29
2023-05-11T00:09:46.317Z,93.70
2023-05-11T00:10:46.319Z,94.11
2023-05-11T00:11:46.339Z,94.17
2023-05-11T00:12:46.800Z,94.37
2023-05-11T00:13:46.661Z,93.40
2023-05-11T00:14:46.274Z,93.35
2023-05-11T00:15:46.273Z,93.35
2023-05-11T00:16:46.275Z,93.45
2023-05-11T00:17:46.304Z,92.94
2023-05-11T00:18:46.316Z,93.05
2023-05-11T00:19:46.248Z,92.79
2023-05-11T00:20:46.205Z,92.89
2023-05-11T00:21:46.224Z,92.44
2023-05-11T00:22:46.194Z,92.38
2023-05-11T00:23:46.184Z,92.84
2023-05-11T00:24:46.223Z,92.74
2023-05-11T00:25:46.181Z,92.58
2023-05-11T00:26:46.187Z,92.58
2023-05-11T00:27:47.135Z,92.99
2023-05-11T00:28:46.126Z,93.29
2023-05-11T00:29:46.139Z,93.90
2023-05-11T00:30:46.155Z,93.50
2023-05-11T00:31:46.139Z,93.90
2023-05-11T00:32:46.119Z,92.89
2023-05-11T00:33:46.069Z,92.89
2023-05-11T00:34:46.167Z,93.50
2023-05-11T00:35:46.116Z,93.40
2023-05-11T00:36:46.886Z,93.80
2023-05-11T00:37:46.069Z,93.50
2023-05-11T00:38:46.036Z,93.60
2023-05-11T00:39:46.151Z,92.94
2023-05-11T00:40:46.009Z,92.89
2023-05-11T00:41:46.019Z,92.99
2023-05-11T00:42:46.027Z,93.50
2023-05-11T00:43:46.507Z,93.19
2023-05-11T00:44:45.996Z,94.21
2023-05-11T00:45:46.041Z,93.60
2023-05-11T00:46:45.957Z,93.80
2023-05-11T00:47:45.993Z,94.11
2023-05-11T00:48:45.931Z,94.01
2023-05-11T00:49:45.912Z,94.21
2023-05-11T00:50:45.918Z,93.60
2023-05-11T00:51:45.900Z,93.70
2023-05-11T00:52:45.945Z,93.70
2023-05-11T00:53:45.905Z,93.50
2023-05-11T00:54:45.871Z,93.60
2023-05-11T00:55:45.857Z,93.80
2023-05-11T00:56:45.854Z,93.40
2023-05-11T00:57:45.833Z,93.66
2023-05-11T00:58:45.838Z,93.29
2023-05-11T00:59:45.821Z,92.94
2023-05-11T01:00:45.877Z,92.99
2023-05-11T01:01:45.830Z,92.99
2023-05-11T01:02:45.889Z,92.99
2023-05-11T01:03:45.787Z,93.19
2023-05-11T01:04:45.768Z,92.99
2023-05-11T01:05:45.769Z,93.25
2023-05-11T01:06:45.767Z,92.79
2023-05-11T01:07:45.737Z,92.74
2023-05-11T01:08:45.727Z,92.54
2023-05-11T01:09:45.731Z,92.54
2023-05-11T01:10:45.708Z,93.05
2023-05-11T01:11:45.771Z,92.74
2023-05-11T01:12:45.723Z,92.68
2023-05-11T01:13:45.688Z,92.74
2023-05-11T01:14:45.673Z,92.33
2023-05-11T01:15:45.656Z,92.38
2023-05-11T01:16:45.719Z,92.64
2023-05-11T01:17:45.681Z,92.33
2023-05-11T01:18:45.677Z,92.23
2023-05-11T01:19:45.618Z,92.23
2023-05-11T01:20:45.637Z,92.33
2023-05-11T01:21:45.632Z,92.68
2023-05-11T01:22:45.645Z,92.23
2023-05-11T01:23:45.576Z,92.18
2023-05-11T01:24:45.654Z,92.68
2023-05-11T01:25:45.569Z,92.74
2023-05-11T01:26:45.579Z,92.68
2023-05-11T01:27:45.561Z,93.19
2023-05-11T01:28:45.530Z,92.68
2023-05-11T01:29:45.524Z,93.05
2023-05-11T01:30:45.959Z,92.68
2023-05-11T01:31:45.571Z,92.79
2023-05-11T01:32:45.568Z,92.44
2023-05-11T01:33:46.502Z,92.68
2023-05-11T01:34:46.549Z,92.74
2023-05-11T01:35:45.843Z,92.64
2023-05-11T01:36:45.454Z,92.68
2023-05-11T01:37:45.454Z,92.89
2023-05-11T01:38:46.450Z,92.54
2023-05-11T01:39:45.414Z,92.79
2023-05-11T01:40:45.421Z,92.79
2023-05-11T01:41:45.422Z,92.79
2023-05-11T01:42:46.590Z,92.64
2023-05-11T01:43:45.389Z,92.58
2023-05-11T01:44:45.391Z,92.68
2023-05-11T01:45:45.448Z,93.09
2023-05-11T01:46:45.407Z,92.68
2023-05-11T01:47:45.375Z,93.09
2023-05-11T01:48:45.326Z,92.99
2023-05-11T01:49:46.350Z,92.99
2023-05-11T01:50:45.339Z,92.99
2023-05-11T01:51:45.314Z,93.50
2023-05-11T01:52:45.339Z,93.19
2023-05-11T01:53:45.312Z,92.68
2023-05-11T01:54:45.289Z,93.13
2023-05-11T01:55:45.265Z,93.24
2023-05-11T01:56:45.267Z,93.54
2023-05-11T01:57:45.269Z,93.29
2023-05-11T01:58:45.234Z,93.09
2023-05-11T01:59:45.230Z,92.99
2023-05-11T02:00:45.230Z,92.99
2023-05-11T02:01:45.306Z,93.24
2023-05-11T02:02:45.367Z,93.13
2023-05-11T02:03:45.270Z,93.95
2023-05-11T02:04:45.198Z,93.33
2023-05-11T02:05:45.163Z,93.33
2023-05-11T02:06:45.154Z,93.85
2023-05-11T02:07:45.186Z,93.64
2023-05-11T02:08:45.152Z,93.54
2023-05-11T02:09:45.141Z,93.85
2023-05-11T02:10:45.112Z,93.33
2023-05-11T02:11:45.140Z,93.54
2023-05-11T02:12:45.104Z,93.85
2023-05-11T02:13:45.090Z,93.70
2023-05-11T02:14:45.100Z,93.80
2023-05-11T02:15:45.103Z,93.09
2023-05-11T02:16:45.051Z,92.99
2023-05-11T02:17:47.231Z,92.99
2023-05-11T02:18:45.088Z,92.99
2023-05-11T02:19:45.488Z,93.44
2023-05-11T02:20:45.076Z,92.93
2023-05-11T02:21:45.338Z,93.64
2023-05-11T02:22:45.010Z,93.54
2023-05-11T02:23:44.977Z,93.13
2023-05-11T02:24:44.975Z,93.29
2023-05-11T02:25:45.378Z,93.40
2023-05-11T02:26:44.950Z,93.80
2023-05-11T02:27:44.985Z,93.50
2023-05-11T02:28:45.888Z,93.40
2023-05-11T02:29:44.938Z,93.90
2023-05-11T02:30:44.983Z,93.09
2023-05-11T02:31:44.934Z,92.89
2023-05-11T02:32:44.945Z,92.89
2023-05-11T02:33:44.882Z,92.33
2023-05-11T02:34:44.880Z,92.44
2023-05-11T02:35:45.883Z,92.44
2023-05-11T02:36:44.873Z,92.38
2023-05-11T02:37:44.874Z,92.13
2023-05-11T02:38:44.822Z,91.87
2023-05-11T02:39:44.819Z,91.93
2023-05-11T02:40:44.811Z,92.13
2023-05-11T02:41:44.846Z,92.03
2023-05-11T02:42:44.814Z,91.93
2023-05-11T02:43:44.781Z,92.23
2023-05-11T02:44:44.770Z,92.03
2023-05-11T02:45:44.779Z,91.93
2023-05-11T02:46:44.766Z,91.77
2023-05-11T02:47:44.813Z,91.83
2023-05-11T02:48:44.741Z,91.93
2023-05-11T02:49:44.975Z,91.72
2023-05-11T02:50:44.992Z,91.87
2023-05-11T02:51:45.733Z,92.03
2023-05-11T02:52:44.736Z,91.72
2023-05-11T02:53:44.918Z,91.77
2023-05-11T02:54:44.662Z,92.07
2023-05-11T02:55:44.679Z,92.13
2023-05-11T02:56:45.676Z,92.27
2023-05-11T02:57:44.679Z,92.23
2023-05-11T02:58:44.649Z,92.33
2023-05-11T02:59:44.635Z,92.23
2023-05-11T03:00:44.732Z,92.33
2023-05-11T03:01:44.729Z,92.54
2023-05-11T03:02:44.651Z,92.27
2023-05-11T03:03:44.745Z,92.27
2023-05-11T03:04:44.619Z,92.38
2023-05-11T03:05:44.591Z,92.54
2023-05-11T03:06:44.590Z,92.64
2023-05-11T03:07:44.552Z,93.09
2023-05-11T03:08:44.560Z,92.79
2023-05-11T03:09:44.540Z,93.29
2023-05-11T03:10:44.516Z,92.89
2023-05-11T03:11:44.571Z,92.99
2023-05-11T03:12:44.511Z,93.29
2023-05-11T03:13:44.494Z,93.40
2023-05-11T03:14:44.469Z,92.99
2023-05-11T03:15:44.491Z,92.94
2023-05-11T03:16:44.498Z,92.89
2023-05-11T03:17:44.498Z,92.68
2023-05-11T03:18:45.482Z,92.68
2023-05-11T03:19:46.523Z,92.99
2023-05-11T03:20:44.419Z,92.89
2023-05-11T03:21:44.414Z,93.09
2023-05-11T03:22:44.465Z,93.40
2023-05-11T03:23:44.410Z,93.15
2023-05-11T03:24:44.396Z,92.79
2023-05-11T03:25:46.896Z,92.68
2023-05-11T03:26:44.412Z,92.79
2023-05-11T03:27:45.918Z,92.68
2023-05-11T03:28:44.350Z,93.03
2023-05-11T03:29:44.330Z,93.74
2023-05-11T03:30:44.319Z,93.40
2023-05-11T03:31:44.361Z,93.90
2023-05-11T03:32:44.351Z,93.70
2023-05-11T03:33:44.296Z,93.29
2023-05-11T03:34:44.304Z,93.40
2023-05-11T03:35:44.336Z,93.29
2023-05-11T03:36:44.263Z,93.85
2023-05-11T03:37:45.287Z,93.60
2023-05-11T03:38:44.260Z,92.99
2023-05-11T03:39:44.250Z,93.09
2023-05-11T03:40:44.253Z,93.90
2023-05-11T03:41:44.219Z,93.09
2023-05-11T03:42:44.211Z,93.19
2023-05-11T03:43:44.196Z,93.13
2023-05-11T03:44:44.201Z,92.99
2023-05-11T03:45:44.202Z,93.03
2023-05-11T03:46:44.222Z,93.54
2023-05-11T03:47:44.192Z,93.74
2023-05-11T03:48:44.181Z,93.24
2023-05-11T03:49:44.149Z,93.95
2023-05-11T03:50:44.135Z,93.85
2023-05-11T03:51:44.145Z,94.50
2023-05-11T03:52:44.109Z,94.30
2023-05-11T03:53:44.121Z,94.60
2023-05-11T03:54:44.115Z,94.81
2023-05-11T03:55:44.074Z,95.83
2023-05-11T03:56:44.063Z,95.32
2023-05-11T03:57:44.081Z,95.16
2023-05-11T03:58:44.086Z,95.26
2023-05-11T03:59:44.034Z,95.77
2023-05-11T04:00:44.122Z,95.47
2023-05-11T04:01:44.089Z,95.26
2023-05-11T04:02:44.072Z,95.42
2023-05-11T04:03:44.172Z,95.57
2023-05-11T04:04:44.740Z,95.67
2023-05-11T04:05:43.951Z,95.77
2023-05-11T04:06:43.984Z,95.47
2023-05-11T04:07:43.987Z,95.77
2023-05-11T04:08:44.021Z,95.57
2023-05-11T04:09:43.937Z,95.47
2023-05-11T04:10:43.926Z,95.21
2023-05-11T04:11:43.920Z,94.40
2023-05-11T04:12:43.938Z,94.81
2023-05-11T04:13:43.919Z,94.81
2023-05-11T04:14:43.900Z,94.05
2023-05-11T04:15:43.918Z,94.15
2023-05-11T04:16:43.864Z,94.30
2023-05-11T04:17:43.890Z,94.15
2023-05-11T04:18:43.926Z,94.35
2023-05-11T04:19:43.855Z,93.28
2023-05-11T04:20:44.039Z,93.64
2023-05-11T04:21:43.854Z,94.09
2023-05-11T04:22:43.824Z,94.35
2023-05-11T04:23:43.813Z,94.35
2023-05-11T04:24:43.807Z,93.33
2023-05-11T04:25:43.787Z,93.64
2023-05-11T04:26:43.747Z,94.40
2023-05-11T04:27:44.743Z,94.30
2023-05-11T04:28:43.730Z,93.85
2023-05-11T04:29:43.757Z,93.85
2023-05-11T04:30:43.714Z,93.44
2023-05-11T04:31:43.859Z,93.79
2023-05-11T04:32:43.780Z,93.85
2023-05-11T04:33:43.690Z,94.15
2023-05-11T04:34:43.710Z,93.85
2023-05-11T04:36:15.578Z,93.38
2023-05-11T04:36:43.649Z,93.89
2023-05-11T04:37:43.662Z,93.74
2023-05-11T04:38:43.650Z,93.95
2023-05-11T04:39:43.633Z,93.85
2023-05-11T04:40:43.639Z,93.74
2023-05-11T04:41:43.606Z,93.74
2023-05-11T04:42:43.614Z,93.24
2023-05-11T04:43:43.605Z,93.74
2023-05-11T04:44:43.562Z,93.74
2023-05-11T04:45:43.555Z,93.74
2023-05-11T04:46:43.620Z,93.74
2023-05-11T04:47:43.561Z,94.11
2023-05-11T04:48:43.570Z,94.31
2023-05-11T04:49:43.524Z,93.80
2023-05-11T04:50:43.568Z,93.09
2023-05-11T04:51:43.513Z,92.68
2023-05-11T04:52:43.500Z,93.09
2023-05-11T04:53:43.519Z,92.89
2023-05-11T04:54:43.486Z,92.68
2023-05-11T04:55:43.500Z,92.18
2023-05-11T04:56:43.453Z,92.68
2023-05-11T04:57:43.517Z,92.99
2023-05-11T04:58:43.458Z,92.68
2023-05-11T04:59:43.485Z,92.27
2023-05-11T05:00:43.489Z,92.33
2023-05-11T05:01:43.438Z,92.48
2023-05-11T05:02:43.438Z,92.74
2023-05-11T05:03:43.395Z,92.74
2023-05-11T05:04:43.378Z,91.93
2023-05-11T05:05:43.416Z,92.33
2023-05-11T05:06:43.364Z,92.74
2023-05-11T05:07:43.357Z,92.74
2023-05-11T05:08:43.342Z,92.33
2023-05-11T05:09:45.222Z,92.13
2023-05-11T05:10:44.341Z,92.44
2023-05-11T05:11:43.312Z,92.40
2023-05-11T05:12:43.307Z,92.44
2023-05-11T05:13:43.276Z,92.23
2023-05-11T05:14:43.277Z,92.33
2023-05-11T05:15:43.314Z,91.72
2023-05-11T05:16:43.346Z,92.44
2023-05-11T05:17:43.347Z,91.83
2023-05-11T05:18:43.322Z,92.44
2023-05-11T05:19:43.230Z,92.54
2023-05-11T05:20:43.223Z,91.62
2023-05-11T05:21:43.204Z,91.83
2023-05-11T05:22:43.198Z,91.72
2023-05-11T05:23:43.236Z,91.38
2023-05-11T05:24:43.179Z,91.27
2023-05-11T05:25:43.190Z,91.78
2023-05-11T05:26:43.153Z,91.48
2023-05-11T05:27:43.151Z,91.88
2023-05-11T05:28:43.167Z,91.58
2023-05-11T05:29:43.130Z,91.48
2023-05-11T05:30:43.138Z,91.58
2023-05-11T05:31:43.111Z,91.23
2023-05-11T05:32:43.161Z,90.97
2023-05-11T05:33:43.114Z,91.07
2023-05-11T05:34:43.104Z,90.86
2023-05-11T05:35:43.107Z,91.27
2023-05-11T05:36:43.073Z,91.07
2023-05-11T05:37:43.049Z,90.56
2023-05-11T05:38:43.041Z,90.46
2023-05-11T05:39:43.042Z,90.46
2023-05-11T05:40:43.028Z,91.13
2023-05-11T05:41:43.012Z,90.72
2023-05-11T05:42:42.994Z,90.42
2023-05-11T05:43:42.989Z,90.58
2023-05-11T05:44:43.010Z,90.07
2023-05-11T05:45:43.023Z,90.37
2023-05-11T05:46:43.068Z,90.27
2023-05-11T05:47:42.975Z,89.87
2023-05-11T05:48:42.947Z,90.58
2023-05-11T05:49:42.935Z,90.17
2023-05-11T05:50:42.915Z,90.37
2023-05-11T05:51:42.922Z,90.33
2023-05-11T05:52:42.903Z,89.42
2023-05-11T05:53:42.875Z,89.52
2023-05-11T05:54:42.875Z,89.62
2023-05-11T05:55:42.876Z,89.26
2023-05-11T05:56:42.864Z,90.07
2023-05-11T05:57:43.009Z,89.36
2023-05-11T05:58:42.858Z,90.17
2023-05-11T05:59:42.875Z,90.17
2023-05-11T06:00:42.832Z,90.07
2023-05-11T06:01:42.808Z,90.07
2023-05-11T06:02:42.950Z,89.92
2023-05-11T06:03:43.013Z,90.17
2023-05-11T06:04:42.867Z,89.76
2023-05-11T06:05:42.776Z,89.66
2023-05-11T06:06:42.770Z,89.26
2023-05-11T06:07:43.121Z,89.87
2023-05-11T06:08:42.734Z,89.62
2023-05-11T06:09:42.730Z,89.62
2023-05-11T06:10:42.743Z,89.92
2023-05-11T06:11:42.737Z,90.23
2023-05-11T06:12:42.704Z,90.13
2023-05-11T06:13:42.706Z,90.13
2023-05-11T06:14:42.709Z,90.33
2023-05-11T06:15:43.826Z,90.44
2023-05-11T06:16:43.666Z,90.44
2023-05-11T06:17:42.787Z,90.33
2023-05-11T06:18:42.693Z,90.44
2023-05-11T06:19:42.632Z,90.33
2023-05-11T06:20:42.609Z,90.64
2023-05-11T06:21:42.633Z,91.14
2023-05-11T06:22:42.584Z,90.64
2023-05-11T06:23:42.586Z,90.53
2023-05-11T06:24:42.566Z,90.53
2023-05-11T06:25:42.558Z,90.03
2023-05-11T06:26:42.556Z,90.33
2023-05-11T06:27:42.578Z,89.62
2023-05-11T06:28:42.552Z,89.92
2023-05-11T06:29:42.527Z,89.92
2023-05-11T06:30:42.505Z,89.62
2023-05-11T06:31:42.590Z,90.13
2023-05-11T06:32:42.530Z,90.44
2023-05-11T06:33:42.498Z,90.33
2023-05-11T06:34:42.492Z,90.68
2023-05-11T06:35:42.509Z,90.53
2023-05-11T06:36:42.484Z,90.48
2023-05-11T06:37:42.437Z,90.84
2023-05-11T06:38:42.451Z,90.84
2023-05-11T06:39:42.432Z,90.17
2023-05-11T06:40:42.437Z,91.09
2023-05-11T06:41:42.448Z,90.99
2023-05-11T06:42:42.415Z,90.58
2023-05-11T06:43:42.412Z,90.68
2023-05-11T06:44:42.575Z,91.39
2023-05-11T06:45:42.365Z,91.69
2023-05-11T06:46:42.401Z,91.74
2023-05-11T06:47:42.440Z,92.04
2023-05-11T06:48:42.334Z,91.74
2023-05-11T06:49:42.337Z,91.84
2023-05-11T06:50:42.338Z,91.94
2023-05-11T06:51:42.315Z,91.64
2023-05-11T06:52:42.309Z,91.74
2023-05-11T06:53:42.280Z,91.53
2023-05-11T06:54:42.278Z,91.74
2023-05-11T06:55:42.252Z,91.80
2023-05-11T06:56:42.296Z,91.69
2023-05-11T06:57:42.238Z,91.35
2023-05-11T06:58:42.244Z,91.14
2023-05-11T06:59:42.221Z,90.84
2023-05-11T07:00:42.220Z,91.25
2023-05-11T07:01:42.286Z,91.25
2023-05-11T07:02:42.250Z,90.39
2023-05-11T07:03:42.187Z,89.62
2023-05-11T07:04:42.224Z,91.25
2023-05-11T07:05:42.149Z,91.14
2023-05-11T07:06:42.134Z,90.84
2023-05-11T07:07:42.166Z,90.84
2023-05-11T07:08:42.138Z,90.64
2023-05-11T07:09:42.257Z,90.99
2023-05-11T07:10:42.112Z,91.05
2023-05-11T07:11:42.117Z,91.35
2023-05-11T07:12:42.084Z,91.25
2023-05-11T07:13:42.081Z,91.55
2023-05-11T07:14:42.058Z,91.05
2023-05-11T07:15:42.037Z,91.14
2023-05-11T07:16:42.131Z,90.33
2023-05-11T07:17:42.039Z,91.35
2023-05-11T07:18:42.052Z,91.25
2023-05-11T07:19:42.010Z,91.45
2023-05-11T07:20:42.065Z,91.30
2023-05-11T07:21:41.984Z,91.05
2023-05-11T07:22:41.968Z,90.94
2023-05-11T07:23:41.964Z,90.74
2023-05-11T07:24:41.965Z,90.64
2023-05-11T07:25:41.935Z,90.59
2023-05-11T07:26:41.941Z,90.33
2023-05-11T07:27:41.907Z,90.33
2023-05-11T07:28:41.902Z,90.44
2023-05-11T07:29:41.954Z,90.64
2023-05-11T07:30:41.891Z,90.70
2023-05-11T07:31:41.908Z,91.10
2023-05-11T07:32:41.884Z,90.19
2023-05-11T07:33:41.857Z,89.43
2023-05-11T07:34:41.836Z,88.93
2023-05-11T07:35:41.862Z,89.84
2023-05-11T07:36:41.821Z,89.80
2023-05-11T07:37:41.834Z,88.99
2023-05-11T07:38:41.810Z,87.77
2023-05-11T07:39:41.795Z,88.07
2023-05-11T07:40:41.838Z,88.07
2023-05-11T07:41:41.776Z,86.96
2023-05-11T07:42:41.761Z,88.18
2023-05-11T07:43:41.749Z,88.34
2023-05-11T07:44:41.780Z,87.52
2023-05-11T07:45:41.763Z,87.73
2023-05-11T07:46:41.917Z,88.29
2023-05-11T07:47:41.789Z,87.69
2023-05-11T07:48:41.733Z,87.83
2023-05-11T07:49:44.085Z,87.48
2023-05-11T07:50:41.702Z,87.59
2023-05-11T07:51:41.677Z,86.47
2023-05-11T07:52:41.665Z,86.68
2023-05-11T07:53:41.673Z,85.93
2023-05-11T07:54:41.670Z,86.39
2023-05-11T07:55:41.705Z,85.93
2023-05-11T07:56:41.621Z,84.77
2023-05-11T07:57:41.638Z,83.76
2023-05-11T07:58:41.602Z,85.07
2023-05-11T07:59:41.616Z,84.42
2023-05-11T08:00:41.601Z,83.88
2023-05-11T08:01:41.608Z,82.87
2023-05-11T08:02:41.640Z,83.07
2023-05-11T08:03:41.565Z,83.88
2023-05-11T08:04:41.541Z,83.23
2023-05-11T08:05:41.594Z,82.73
2023-05-11T08:06:41.517Z,83.78
2023-05-11T08:07:41.820Z,83.68
2023-05-11T08:08:41.524Z,83.13
2023-05-11T08:09:42.526Z,83.90
2023-05-11T08:10:41.507Z,82.89
2023-05-11T08:11:41.476Z,84.11
2023-05-11T08:12:41.458Z,83.09
2023-05-11T08:13:41.453Z,83.90
2023-05-11T08:14:41.468Z,83.84
2023-05-11T08:15:41.489Z,82.89
2023-05-11T08:16:41.581Z,84.71
2023-05-11T08:17:41.434Z,84.61
2023-05-11T08:18:41.482Z,82.59
2023-05-11T08:19:41.416Z,82.85
2023-05-11T08:20:41.418Z,81.84
2023-05-11T08:21:41.378Z,81.03
2023-05-11T08:22:41.387Z,81.44
2023-05-11T08:23:42.873Z,80.93
2023-05-11T08:24:41.349Z,80.93
2023-05-11T08:25:41.351Z,81.68
2023-05-11T08:26:41.328Z,82.08
2023-05-11T08:27:41.333Z,83.70
2023-05-11T08:28:41.301Z,84.31
2023-05-11T08:29:41.335Z,83.60
2023-05-11T08:30:41.289Z,82.55
2023-05-11T08:31:41.384Z,81.64
2023-05-11T08:32:57.191Z,81.64
2023-05-11T08:33:43.381Z,81.84
2023-05-11T08:34:41.426Z,82.31
2023-05-11T08:35:41.233Z,82.71
2023-05-11T08:36:41.233Z,81.03
2023-05-11T08:37:41.231Z,81.27
2023-05-11T08:38:41.204Z,81.74
2023-05-11T08:39:47.406Z,82.99
2023-05-11T08:40:43.188Z,82.28
2023-05-11T08:41:41.192Z,81.68
2023-05-11T08:42:41.204Z,82.53
2023-05-11T08:43:41.156Z,82.79
2023-05-11T08:44:41.142Z,84.51
2023-05-11T08:45:41.175Z,84.00
2023-05-11T08:46:41.153Z,82.95
2023-05-11T08:47:41.117Z,84.67
2023-05-11T08:48:41.115Z,84.06
2023-05-11T08:49:41.104Z,82.75
2023-05-11T08:50:41.112Z,82.75
2023-05-11T08:51:41.127Z,81.74
2023-05-11T08:52:41.064Z,82.24
2023-05-11T08:53:41.054Z,82.85
2023-05-11T08:54:41.060Z,83.66
2023-05-11T08:55:41.053Z,83.05
2023-05-11T08:56:41.072Z,81.98
2023-05-11T08:57:41.042Z,80.87
2023-05-11T08:58:41.021Z,81.78
2023-05-11T08:59:40.998Z,82.45
2023-05-11T09:00:40.988Z,83.19
2023-05-11T09:01:41.051Z,83.19
2023-05-11T09:02:40.999Z,82.69
2023-05-11T09:03:40.968Z,82.83
2023-05-11T09:04:40.975Z,83.03
2023-05-11T09:05:40.986Z,83.03
2023-05-11T09:06:40.932Z,82.83
2023-05-11T09:07:40.945Z,84.04
2023-05-11T09:08:40.968Z,84.75
2023-05-11T09:09:40.885Z,84.81
2023-05-11T09:10:40.871Z,84.81
2023-05-11T09:11:40.874Z,84.71
2023-05-11T09:12:40.843Z,84.81
2023-05-11T09:13:40.879Z,83.29
2023-05-11T09:14:40.836Z,83.09
2023-05-11T09:15:40.929Z,83.09
2023-05-11T09:16:40.837Z,82.28
2023-05-11T09:17:40.814Z,82.22
2023-05-11T09:18:40.829Z,83.33
2023-05-11T09:19:40.837Z,83.60
2023-05-11T09:20:40.764Z,84.75
2023-05-11T09:21:40.755Z,85.93
2023-05-11T09:22:40.797Z,85.62
2023-05-11T09:23:40.751Z,84.61
2023-05-11T09:24:40.750Z,83.74
2023-05-11T09:25:40.752Z,82.79
2023-05-11T09:26:40.714Z,82.24
2023-05-11T09:27:41.620Z,82.75
2023-05-11T09:29:41.688Z,83.05
2023-05-11T09:30:40.701Z,82.95
2023-05-11T09:31:40.707Z,82.21
2023-05-11T09:32:40.695Z,81.94
2023-05-11T09:33:40.650Z,81.20
2023-05-11T09:34:43.197Z,81.05
2023-05-11T09:35:41.634Z,80.96
2023-05-11T09:36:40.612Z,82.17
2023-05-11T09:37:40.678Z,81.32
2023-05-11T09:38:40.606Z,81.67
2023-05-11T09:39:59.194Z,82.23
2023-05-11T09:40:43.189Z,82.43
2023-05-11T09:41:40.600Z,80.41
2023-05-11T09:42:40.560Z,79.64
2023-05-11T09:43:40.599Z,80.92
2023-05-11T09:44:40.537Z,79.61
2023-05-11T09:45:40.522Z,78.70
2023-05-11T09:46:40.539Z,79.27
2023-05-11T09:47:40.548Z,79.36
2023-05-11T09:48:40.521Z,79.16
2023-05-11T09:49:40.489Z,79.06
2023-05-11T09:50:40.494Z,78.32
2023-05-11T09:51:40.468Z,78.56
2023-05-11T09:52:40.459Z,78.72
2023-05-11T09:53:40.480Z,79.23
2023-05-11T09:54:40.437Z,78.26
2023-05-11T09:55:40.447Z,78.96
2023-05-11T09:56:40.437Z,79.10
2023-05-11T09:57:40.415Z,80.72
2023-05-11T09:58:40.451Z,80.96
2023-05-11T09:59:40.390Z,81.16
2023-05-11T10:00:40.382Z,82.27
2023-05-11T10:01:40.429Z,81.46
2023-05-11T10:02:40.416Z,82.98
2023-05-11T10:03:40.421Z,82.78
2023-05-11T10:04:40.351Z,82.47
2023-05-11T10:05:40.337Z,81.46
2023-05-11T10:06:40.339Z,81.10
2023-05-11T10:07:40.308Z,82.41
2023-05-11T10:08:40.306Z,81.74
2023-05-11T10:09:40.288Z,82.81
2023-05-11T10:10:40.286Z,83.01
2023-05-11T10:11:40.273Z,82.91
2023-05-11T10:12:40.343Z,82.14
2023-05-11T10:13:40.245Z,82.31
2023-05-11T10:14:40.278Z,82.81
2023-05-11T10:15:40.239Z,82.31
2023-05-11T10:16:40.282Z,82.21
2023-05-11T10:17:40.252Z,82.61
2023-05-11T10:18:40.268Z,84.27
2023-05-11T10:19:40.204Z,84.83
2023-05-11T10:20:40.180Z,85.44
2023-05-11T10:21:40.159Z,85.64
2023-05-11T10:22:40.241Z,84.49
2023-05-11T10:23:40.165Z,84.39
2023-05-11T10:24:40.136Z,83.84
2023-05-11T10:25:40.128Z,82.87
2023-05-11T10:26:40.142Z,81.46
2023-05-11T10:27:40.136Z,82.71
2023-05-11T10:28:40.121Z,82.75
2023-05-11T10:29:40.114Z,84.06
2023-05-11T10:30:40.095Z,84.67
2023-05-11T10:31:40.151Z,84.27
2023-05-11T10:32:40.086Z,82.31
2023-05-11T10:33:40.040Z,82.31
2023-05-11T10:34:40.040Z,82.81
2023-05-11T10:36:12.000Z,82.91
2023-05-11T10:36:40.044Z,84.53
2023-05-11T10:37:40.010Z,83.82
2023-05-11T10:38:40.042Z,84.53
2023-05-11T10:39:40.012Z,83.01
2023-05-11T10:40:39.998Z,83.72
2023-05-11T10:41:39.996Z,84.23
2023-05-11T10:42:39.995Z,84.53
2023-05-11T10:43:39.958Z,84.29
2023-05-11T10:44:39.949Z,85.40
2023-05-11T10:45:39.981Z,85.90
2023-05-11T10:46:39.942Z,84.69
2023-05-11T10:47:40.012Z,85.16
2023-05-11T10:48:39.901Z,83.98
2023-05-11T10:49:39.951Z,82.87
2023-05-11T10:50:42.836Z,84.39
2023-05-11T10:51:39.893Z,83.98
2023-05-11T10:52:39.895Z,83.58
2023-05-11T10:53:39.880Z,83.48
2023-05-11T10:54:39.857Z,83.07
2023-05-11T10:55:39.858Z,82.27
2023-05-11T10:56:39.827Z,82.78
2023-05-11T10:57:39.838Z,82.78
2023-05-11T10:58:39.842Z,83.28
2023-05-11T10:59:39.856Z,82.93
2023-05-11T11:00:39.836Z,82.93
2023-05-11T11:01:39.839Z,82.84
2023-05-11T11:02:39.791Z,81.82
2023-05-11T11:03:39.766Z,82.23
2023-05-11T11:04:39.766Z,83.34
2023-05-11T11:05:39.770Z,84.25
2023-05-11T11:06:39.754Z,81.02
2023-05-11T11:07:39.733Z,80.62
2023-05-11T11:08:39.736Z,82.19
2023-05-11T11:09:39.749Z,82.56
2023-05-11T11:10:39.698Z,80.94
2023-05-11T11:11:39.676Z,79.73
2023-05-11T11:12:39.657Z,80.70
2023-05-11T11:13:39.652Z,80.36
2023-05-11T11:14:39.667Z,80.73
2023-05-11T11:15:39.647Z,79.05
2023-05-11T11:16:39.628Z,77.14
2023-05-11T11:17:39.676Z,79.72
2023-05-11T11:18:39.632Z,81.33
2023-05-11T11:19:39.618Z,79.72
2023-05-11T11:20:39.599Z,79.42
2023-05-11T11:21:39.569Z,80.32
2023-05-11T11:22:39.577Z,77.37
2023-05-11T11:23:39.573Z,74.95
2023-05-11T11:24:39.570Z,75.05
2023-05-11T11:25:40.568Z,78.47
2023-05-11T11:26:39.548Z,78.98
2023-05-11T11:27:39.518Z,78.38
2023-05-11T11:28:39.496Z,77.40
2023-05-11T11:29:39.491Z,77.11
2023-05-11T11:30:39.505Z,73.92
2023-05-11T11:31:39.536Z,74.18
2023-05-11T11:32:39.528Z,77.11
2023-05-11T11:33:39.467Z,78.31
2023-05-11T11:34:39.506Z,77.31
2023-05-11T11:35:39.483Z,77.40
2023-05-11T11:36:39.461Z,78.55
2023-05-11T11:37:39.436Z,76.87
2023-05-11T11:38:39.420Z,77.08
2023-05-11T11:39:39.443Z,77.31
2023-05-11T11:40:50.093Z,78.52
2023-05-11T11:41:40.388Z,79.49
2023-05-11T11:42:39.407Z,77.42
2023-05-11T11:43:39.373Z,78.12
2023-05-11T11:44:39.361Z,78.32
2023-05-11T11:45:39.382Z,79.03
2023-05-11T11:46:39.364Z,79.19
2023-05-11T11:47:39.421Z,77.42
2023-05-11T11:48:39.330Z,78.32
2023-05-11T11:49:39.330Z,79.63
2023-05-11T11:50:39.309Z,80.30
2023-05-11T11:51:39.333Z,81.10
2023-05-11T11:52:39.314Z,79.90
2023-05-11T11:53:39.285Z,79.80
2023-05-11T11:54:39.271Z,79.49
2023-05-11T11:55:39.253Z,79.69
2023-05-11T11:56:39.264Z,80.16
2023-05-11T11:57:39.261Z,78.89
2023-05-11T11:58:39.213Z,79.80
2023-05-11T11:59:39.229Z,81.81
2023-05-11T12:00:39.231Z,82.01
2023-05-11T12:01:39.255Z,79.83
2023-05-11T12:02:39.236Z,79.93
2023-05-11T12:03:39.341Z,80.98
2023-05-11T12:04:39.159Z,80.24
2023-05-11T12:05:39.144Z,80.47
2023-05-11T12:06:39.251Z,81.24
2023-05-11T12:07:39.127Z,81.48
2023-05-11T12:08:39.188Z,80.54
2023-05-11T12:09:39.215Z,80.84
2023-05-11T12:10:39.104Z,78.63
2023-05-11T12:11:39.106Z,77.35
2023-05-11T12:12:39.082Z,78.56
2023-05-11T12:13:39.108Z,79.77
2023-05-11T12:14:39.083Z,78.96
2023-05-11T12:15:39.049Z,79.00
2023-05-11T12:16:39.063Z,81.52
2023-05-11T12:17:39.097Z,79.81
2023-05-11T12:18:39.077Z,78.39
2023-05-11T12:19:39.006Z,79.64
2023-05-11T12:20:39.017Z,79.44
2023-05-11T12:21:38.992Z,80.69
2023-05-11T12:22:38.974Z,80.29
2023-05-11T12:23:39.002Z,80.99
2023-05-11T12:24:38.986Z,80.90
2023-05-11T12:25:38.948Z,81.90
2023-05-11T12:26:38.941Z,80.59
2023-05-11T12:27:38.938Z,82.31
2023-05-11T12:28:38.918Z,81.10
2023-05-11T12:29:38.940Z,81.70
2023-05-11T12:30:38.920Z,83.12
2023-05-11T12:31:39.030Z,83.22
2023-05-11T12:32:38.906Z,81.44
2023-05-11T12:33:38.867Z,81.34
2023-05-11T12:34:38.863Z,82.95
2023-05-11T12:35:38.847Z,82.95
2023-05-11T12:36:38.887Z,82.75
2023-05-11T12:37:38.844Z,82.75
2023-05-11T12:38:38.820Z,82.81
2023-05-11T12:39:38.810Z,82.01
2023-05-11T12:40:38.949Z,82.21
2023-05-11T12:41:38.798Z,82.37
2023-05-11T12:42:38.808Z,83.18
2023-05-11T12:43:38.804Z,82.57
2023-05-11T12:44:38.808Z,82.87
2023-05-11T12:45:38.776Z,82.47
2023-05-11T12:46:38.864Z,82.57
2023-05-11T12:47:38.768Z,83.24
2023-05-11T12:48:38.773Z,83.44
2023-05-11T12:49:38.705Z,81.05
2023-05-11T12:50:38.765Z,81.46
2023-05-11T12:51:38.723Z,81.96
2023-05-11T12:52:38.687Z,82.31
2023-05-11T12:53:38.683Z,82.47